sensor_id;sensor_type;location;lat;lon;timestamp;P1;durP1;ratioP1;P2;durP2;ratioP2
13683;SDS011;6914;53.552;9.908;2023-06-22T00:01:45;10.27;;;5.10;;
13683;SDS011;6914;53.552;9.908;2023-06-22T00:04:13;6.80;;;5.13;;
13683;SDS011;6914;53.552;9.908;2023-06-22T00:06:41;5.63;;;5.13;;
13683;SDS011;6914;53.552;9.908;2023-06-22T00:09:10;6.23;;;5.70;;
13683;SDS011;6914;53.552;9.908;2023-06-22T00:11:42;11.60;;;5.87;;
13683;SDS011;6914;53.552;9.908;2023-06-22T00:14:12;6.00;;;5.50;;
13683;SDS011;6914;53.552;9.908;2023-06-22T00:16:39;6.37;;;5.60;;
13683;SDS011;6914;53.552;9.908;2023-06-22T00:19:07;7.60;;;6.30;;
13683;SDS011;6914;53.552;9.908;2023-06-22T00:21:36;7.50;;;6.57;;
13683;SDS011;6914;53.552;9.908;2023-06-22T00:24:05;6.57;;;6.17;;
13683;SDS011;6914;53.552;9.908;2023-06-22T00:26:33;8.87;;;6.67;;
13683;SDS011;6914;53.552;9.908;2023-06-22T00:29:00;11.43;;;7.43;;
13683;SDS011;6914;53.552;9.908;2023-06-22T00:31:27;6.60;;;6.10;;
13683;SDS011;6914;53.552;9.908;2023-06-22T00:33:54;8.70;;;7.73;;
13683;SDS011;6914;53.552;9.908;2023-06-22T00:36:22;14.40;;;7.00;;
13683;SDS011;6914;53.552;9.908;2023-06-22T00:38:49;8.30;;;7.50;;
13683;SDS011;6914;53.552;9.908;2023-06-22T00:41:18;12.40;;;8.23;;
13683;SDS011;6914;53.552;9.908;2023-06-22T00:43:45;7.77;;;7.00;;
13683;SDS011;6914;53.552;9.908;2023-06-22T00:46:12;8.73;;;8.03;;
13683;SDS011;6914;53.552;9.908;2023-06-22T00:48:39;8.97;;;7.67;;
13683;SDS011;6914;53.552;9.908;2023-06-22T00:51:09;10.90;;;7.73;;
13683;SDS011;6914;53.552;9.908;2023-06-22T00:53:36;9.03;;;8.13;;
13683;SDS011;6914;53.552;9.908;2023-06-22T00:56:03;9.63;;;8.03;;
13683;SDS011;6914;53.552;9.908;2023-06-22T00:58:35;10.43;;;9.00;;
13683;SDS011;6914;53.552;9.908;2023-06-22T01:01:02;8.57;;;7.77;;
13683;SDS011;6914;53.552;9.908;2023-06-22T01:03:29;20.97;;;8.20;;
13683;SDS011;6914;53.552;9.908;2023-06-22T01:05:59;9.80;;;8.30;;
13683;SDS011;6914;53.552;9.908;2023-06-22T01:08:29;8.77;;;7.90;;
13683;SDS011;6914;53.552;9.908;2023-06-22T01:11:00;13.93;;;8.83;;
13683;SDS011;6914;53.552;9.908;2023-06-22T01:13:32;10.30;;;8.47;;
13683;SDS011;6914;53.552;9.908;2023-06-22T01:16:04;11.33;;;9.50;;
13683;SDS011;6914;53.552;9.908;2023-06-22T01:18:32;8.00;;;7.20;;
13683;SDS011;6914;53.552;9.908;2023-06-22T01:21:01;9.03;;;7.63;;
13683;SDS011;6914;53.552;9.908;2023-06-22T01:23:35;12.90;;;9.20;;
13683;SDS011;6914;53.552;9.908;2023-06-22T01:26:05;9.90;;;9.00;;
13683;SDS011;6914;53.552;9.908;2023-06-22T01:28:44;13.17;;;9.63;;
13683;SDS011;6914;53.552;9.908;2023-06-22T01:31:13;9.10;;;8.27;;
13683;SDS011;6914;53.552;9.908;2023-06-22T01:33:41;14.57;;;8.07;;
13683;SDS011;6914;53.552;9.908;2023-06-22T01:36:09;8.47;;;7.67;;
13683;SDS011;6914;53.552;9.908;2023-06-22T01:38:37;9.10;;;8.30;;
13683;SDS011;6914;53.552;9.908;2023-06-22T01:41:05;15.40;;;8.80;;
13683;SDS011;6914;53.552;9.908;2023-06-22T01:43:32;9.33;;;8.47;;
13683;SDS011;6914;53.552;9.908;2023-06-22T01:46:01;9.10;;;8.27;;
13683;SDS011;6914;53.552;9.908;2023-06-22T01:48:28;8.80;;;7.90;;
13683;SDS011;6914;53.552;9.908;2023-06-22T01:50:56;9.80;;;8.80;;
13683;SDS011;6914;53.552;9.908;2023-06-22T01:53:24;10.10;;;8.73;;
13683;SDS011;6914;53.552;9.908;2023-06-22T01:55:51;11.67;;;10.03;;
13683;SDS011;6914;53.552;9.908;2023-06-22T01:58:18;12.30;;;8.90;;
13683;SDS011;6914;53.552;9.908;2023-06-22T02:00:48;12.03;;;9.30;;
13683;SDS011;6914;53.552;9.908;2023-06-22T02:03:18;9.93;;;8.87;;
13683;SDS011;6914;53.552;9.908;2023-06-22T02:05:48;10.20;;;8.27;;
13683;SDS011;6914;53.552;9.908;2023-06-22T02:08:17;11.87;;;8.70;;
13683;SDS011;6914;53.552;9.908;2023-06-22T02:10:46;11.53;;;9.10;;
13683;SDS011;6914;53.552;9.908;2023-06-22T02:13:13;12.00;;;9.90;;
13683;SDS011;6914;53.552;9.908;2023-06-22T02:15:41;11.60;;;8.57;;
13683;SDS011;6914;53.552;9.908;2023-06-22T02:18:08;10.00;;;9.00;;
13683;SDS011;6914;53.552;9.908;2023-06-22T02:20:37;10.40;;;9.30;;
13683;SDS011;6914;53.552;9.908;2023-06-22T02:23:05;13.93;;;8.90;;
13683;SDS011;6914;53.552;9.908;2023-06-22T02:25:32;10.80;;;8.93;;
13683;SDS011;6914;53.552;9.908;2023-06-22T02:27:59;12.70;;;8.40;;
13683;SDS011;6914;53.552;9.908;2023-06-22T02:30:26;10.13;;;9.13;;
13683;SDS011;6914;53.552;9.908;2023-06-22T02:32:53;14.97;;;9.03;;
13683;SDS011;6914;53.552;9.908;2023-06-22T02:35:23;15.60;;;9.20;;
13683;SDS011;6914;53.552;9.908;2023-06-22T02:37:52;11.43;;;9.40;;
13683;SDS011;6914;53.552;9.908;2023-06-22T02:40:19;14.63;;;9.13;;
13683;SDS011;6914;53.552;9.908;2023-06-22T02:42:46;13.30;;;9.30;;
13683;SDS011;6914;53.552;9.908;2023-06-22T02:45:13;9.20;;;8.30;;
13683;SDS011;6914;53.552;9.908;2023-06-22T02:47:41;11.57;;;10.37;;
13683;SDS011;6914;53.552;9.908;2023-06-22T02:50:08;11.60;;;9.63;;
13683;SDS011;6914;53.552;9.908;2023-06-22T02:52:35;12.63;;;9.00;;
13683;SDS011;6914;53.552;9.908;2023-06-22T02:55:06;15.80;;;11.07;;
13683;SDS011;6914;53.552;9.908;2023-06-22T02:57:33;11.60;;;9.30;;
13683;SDS011;6914;53.552;9.908;2023-06-22T03:00:02;9.57;;;8.57;;
13683;SDS011;6914;53.552;9.908;2023-06-22T03:02:41;15.40;;;9.30;;
13683;SDS011;6914;53.552;9.908;2023-06-22T03:05:09;12.40;;;10.70;;
13683;SDS011;6914;53.552;9.908;2023-06-22T03:07:39;12.03;;;9.00;;
13683;SDS011;6914;53.552;9.908;2023-06-22T03:10:08;17.20;;;9.93;;
13683;SDS011;6914;53.552;9.908;2023-06-22T03:12:36;11.70;;;10.50;;
13683;SDS011;6914;53.552;9.908;2023-06-22T03:15:04;12.10;;;9.60;;
13683;SDS011;6914;53.552;9.908;2023-06-22T03:17:31;10.33;;;9.37;;
13683;SDS011;6914;53.552;9.908;2023-06-22T03:19:58;12.40;;;9.73;;
13683;SDS011;6914;53.552;9.908;2023-06-22T03:22:26;20.33;;;11.07;;
13683;SDS011;6914;53.552;9.908;2023-06-22T03:24:53;27.60;;;10.50;;
13683;SDS011;6914;53.552;9.908;2023-06-22T03:27:21;13.00;;;9.63;;
13683;SDS011;6914;53.552;9.908;2023-06-22T03:29:48;10.50;;;9.50;;
13683;SDS011;6914;53.552;9.908;2023-06-22T03:32:16;12.67;;;10.10;;
13683;SDS011;6914;53.552;9.908;2023-06-22T03:34:43;10.70;;;9.67;;
13683;SDS011;6914;53.552;9.908;2023-06-22T03:37:12;12.40;;;10.30;;
13683;SDS011;6914;53.552;9.908;2023-06-22T03:39:39;12.17;;;10.70;;
13683;SDS011;6914;53.552;9.908;2023-06-22T03:42:06;11.43;;;10.00;;
13683;SDS011;6914;53.552;9.908;2023-06-22T03:44:34;12.00;;;10.80;;
13683;SDS011;6914;53.552;9.908;2023-06-22T03:47:02;15.23;;;10.37;;
13683;SDS011;6914;53.552;9.908;2023-06-22T03:49:29;17.47;;;10.97;;
13683;SDS011;6914;53.552;9.908;2023-06-22T03:51:57;15.07;;;10.63;;
13683;SDS011;6914;53.552;9.908;2023-06-22T03:54:24;14.07;;;10.90;;
13683;SDS011;6914;53.552;9.908;2023-06-22T03:56:52;11.43;;;10.10;;
13683;SDS011;6914;53.552;9.908;2023-06-22T03:59:20;15.13;;;10.20;;
13683;SDS011;6914;53.552;9.908;2023-06-22T04:01:48;14.13;;;11.40;;
13683;SDS011;6914;53.552;9.908;2023-06-22T04:04:15;12.07;;;10.10;;
13683;SDS011;6914;53.552;9.908;2023-06-22T04:06:43;17.80;;;11.13;;
13683;SDS011;6914;53.552;9.908;2023-06-22T04:09:10;10.43;;;9.40;;
13683;SDS011;6914;53.552;9.908;2023-06-22T04:11:37;15.47;;;11.33;;
13683;SDS011;6914;53.552;9.908;2023-06-22T04:14:04;17.50;;;10.10;;
13683;SDS011;6914;53.552;9.908;2023-06-22T04:16:32;17.50;;;10.67;;
13683;SDS011;6914;53.552;9.908;2023-06-22T04:19:01;12.00;;;10.90;;
13683;SDS011;6914;53.552;9.908;2023-06-22T04:21:28;14.33;;;10.57;;
13683;SDS011;6914;53.552;9.908;2023-06-22T04:23:56;16.83;;;11.20;;
13683;SDS011;6914;53.552;9.908;2023-06-22T04:26:23;14.10;;;10.67;;
13683;SDS011;6914;53.552;9.908;2023-06-22T04:28:50;16.13;;;10.60;;
13683;SDS011;6914;53.552;9.908;2023-06-22T04:31:20;12.50;;;10.60;;
13683;SDS011;6914;53.552;9.908;2023-06-22T04:33:57;11.03;;;9.93;;
13683;SDS011;6914;53.552;9.908;2023-06-22T04:36:32;15.07;;;11.07;;
13683;SDS011;6914;53.552;9.908;2023-06-22T04:39:02;13.70;;;10.33;;
13683;SDS011;6914;53.552;9.908;2023-06-22T04:41:29;11.27;;;9.57;;
13683;SDS011;6914;53.552;9.908;2023-06-22T04:44:07;11.93;;;9.73;;
13683;SDS011;6914;53.552;9.908;2023-06-22T04:46:35;14.17;;;10.63;;
13683;SDS011;6914;53.552;9.908;2023-06-22T04:49:03;9.73;;;8.87;;
13683;SDS011;6914;53.552;9.908;2023-06-22T04:51:38;13.17;;;9.00;;
13683;SDS011;6914;53.552;9.908;2023-06-22T04:54:06;10.80;;;9.70;;
13683;SDS011;6914;53.552;9.908;2023-06-22T04:56:34;11.93;;;7.80;;
13683;SDS011;6914;53.552;9.908;2023-06-22T04:59:01;9.47;;;8.57;;
13683;SDS011;6914;53.552;9.908;2023-06-22T05:01:29;10.00;;;8.70;;
13683;SDS011;6914;53.552;9.908;2023-06-22T05:03:57;11.40;;;8.73;;
13683;SDS011;6914;53.552;9.908;2023-06-22T05:06:26;14.27;;;9.40;;
13683;SDS011;6914;53.552;9.908;2023-06-22T05:08:55;12.50;;;8.20;;
13683;SDS011;6914;53.552;9.908;2023-06-22T05:11:23;17.33;;;8.70;;
13683;SDS011;6914;53.552;9.908;2023-06-22T05:13:50;8.17;;;6.77;;
13683;SDS011;6914;53.552;9.908;2023-06-22T05:16:20;10.90;;;7.83;;
13683;SDS011;6914;53.552;9.908;2023-06-22T05:18:52;10.83;;;8.47;;
13683;SDS011;6914;53.552;9.908;2023-06-22T05:21:21;9.87;;;7.83;;
13683;SDS011;6914;53.552;9.908;2023-06-22T05:23:49;8.60;;;7.57;;
13683;SDS011;6914;53.552;9.908;2023-06-22T05:26:17;11.30;;;7.90;;
13683;SDS011;6914;53.552;9.908;2023-06-22T05:28:45;10.00;;;9.00;;
13683;SDS011;6914;53.552;9.908;2023-06-22T05:31:12;13.07;;;8.00;;
13683;SDS011;6914;53.552;9.908;2023-06-22T05:33:40;9.57;;;6.30;;
13683;SDS011;6914;53.552;9.908;2023-06-22T05:36:07;9.07;;;6.70;;
13683;SDS011;6914;53.552;9.908;2023-06-22T05:38:35;12.10;;;7.40;;
13683;SDS011;6914;53.552;9.908;2023-06-22T05:41:02;7.70;;;6.90;;
13683;SDS011;6914;53.552;9.908;2023-06-22T05:43:31;8.90;;;8.00;;
13683;SDS011;6914;53.552;9.908;2023-06-22T05:45:59;15.47;;;6.50;;
13683;SDS011;6914;53.552;9.908;2023-06-22T05:48:27;8.17;;;6.77;;
13683;SDS011;6914;53.552;9.908;2023-06-22T05:50:55;7.37;;;6.73;;
13683;SDS011;6914;53.552;9.908;2023-06-22T05:53:22;7.17;;;6.37;;
13683;SDS011;6914;53.552;9.908;2023-06-22T05:55:49;6.97;;;6.27;;
13683;SDS011;6914;53.552;9.908;2023-06-22T05:58:16;13.90;;;7.03;;
13683;SDS011;6914;53.552;9.908;2023-06-22T06:00:45;8.40;;;6.63;;
13683;SDS011;6914;53.552;9.908;2023-06-22T06:03:13;6.73;;;6.10;;
13683;SDS011;6914;53.552;9.908;2023-06-22T06:05:42;7.07;;;6.37;;
13683;SDS011;6914;53.552;9.908;2023-06-22T06:08:09;8.13;;;7.17;;
13683;SDS011;6914;53.552;9.908;2023-06-22T06:10:37;7.10;;;6.40;;
13683;SDS011;6914;53.552;9.908;2023-06-22T06:13:04;10.57;;;6.40;;
13683;SDS011;6914;53.552;9.908;2023-06-22T06:15:31;6.70;;;5.77;;
13683;SDS011;6914;53.552;9.908;2023-06-22T06:18:00;5.37;;;5.00;;
13683;SDS011;6914;53.552;9.908;2023-06-22T06:20:30;9.97;;;5.03;;
13683;SDS011;6914;53.552;9.908;2023-06-22T06:22:57;5.40;;;4.30;;
13683;SDS011;6914;53.552;9.908;2023-06-22T06:25:24;6.13;;;5.63;;
13683;SDS011;6914;53.552;9.908;2023-06-22T06:27:51;5.70;;;5.20;;
13683;SDS011;6914;53.552;9.908;2023-06-22T06:30:19;6.33;;;5.80;;
13683;SDS011;6914;53.552;9.908;2023-06-22T06:32:47;9.50;;;5.40;;
13683;SDS011;6914;53.552;9.908;2023-06-22T06:35:16;9.30;;;5.03;;
13683;SDS011;6914;53.552;9.908;2023-06-22T06:37:43;6.60;;;5.50;;
13683;SDS011;6914;53.552;9.908;2023-06-22T06:40:11;9.93;;;5.00;;
13683;SDS011;6914;53.552;9.908;2023-06-22T06:42:40;6.33;;;5.30;;
13683;SDS011;6914;53.552;9.908;2023-06-22T06:45:09;5.70;;;4.13;;
13683;SDS011;6914;53.552;9.908;2023-06-22T06:47:36;5.07;;;4.47;;
13683;SDS011;6914;53.552;9.908;2023-06-22T06:50:05;5.33;;;4.50;;
13683;SDS011;6914;53.552;9.908;2023-06-22T06:52:33;7.67;;;5.13;;
13683;SDS011;6914;53.552;9.908;2023-06-22T06:55:01;5.10;;;4.70;;
13683;SDS011;6914;53.552;9.908;2023-06-22T06:57:30;5.10;;;4.50;;
13683;SDS011;6914;53.552;9.908;2023-06-22T06:59:57;4.87;;;3.93;;
13683;SDS011;6914;53.552;9.908;2023-06-22T07:02:25;4.60;;;4.30;;
13683;SDS011;6914;53.552;9.908;2023-06-22T07:04:53;5.37;;;4.93;;
13683;SDS011;6914;53.552;9.908;2023-06-22T07:07:21;4.77;;;4.37;;
13683;SDS011;6914;53.552;9.908;2023-06-22T07:09:49;8.27;;;4.90;;
13683;SDS011;6914;53.552;9.908;2023-06-22T07:12:16;6.97;;;4.43;;
13683;SDS011;6914;53.552;9.908;2023-06-22T07:14:44;7.47;;;4.37;;
13683;SDS011;6914;53.552;9.908;2023-06-22T07:17:11;14.93;;;4.70;;
13683;SDS011;6914;53.552;9.908;2023-06-22T07:19:38;5.13;;;4.57;;
13683;SDS011;6914;53.552;9.908;2023-06-22T07:22:05;8.53;;;4.30;;
13683;SDS011;6914;53.552;9.908;2023-06-22T07:24:32;4.63;;;4.30;;
13683;SDS011;6914;53.552;9.908;2023-06-22T07:27:00;7.10;;;5.80;;
13683;SDS011;6914;53.552;9.908;2023-06-22T07:29:28;5.37;;;4.73;;
13683;SDS011;6914;53.552;9.908;2023-06-22T07:31:56;8.40;;;4.57;;
13683;SDS011;6914;53.552;9.908;2023-06-22T07:34:25;5.87;;;4.33;;
13683;SDS011;6914;53.552;9.908;2023-06-22T07:36:52;4.93;;;4.30;;
13683;SDS011;6914;53.552;9.908;2023-06-22T07:39:20;9.97;;;5.00;;
13683;SDS011;6914;53.552;9.908;2023-06-22T07:41:50;4.07;;;3.73;;
13683;SDS011;6914;53.552;9.908;2023-06-22T07:44:19;4.80;;;4.10;;
13683;SDS011;6914;53.552;9.908;2023-06-22T07:46:46;7.63;;;4.40;;
13683;SDS011;6914;53.552;9.908;2023-06-22T07:49:13;6.97;;;4.50;;
13683;SDS011;6914;53.552;9.908;2023-06-22T07:51:40;6.97;;;4.03;;
13683;SDS011;6914;53.552;9.908;2023-06-22T07:54:08;8.83;;;4.87;;
13683;SDS011;6914;53.552;9.908;2023-06-22T07:56:36;4.20;;;3.83;;
13683;SDS011;6914;53.552;9.908;2023-06-22T07:59:03;11.03;;;4.60;;
13683;SDS011;6914;53.552;9.908;2023-06-22T08:01:32;4.27;;;3.97;;
13683;SDS011;6914;53.552;9.908;2023-06-22T08:03:59;4.87;;;4.57;;
13683;SDS011;6914;53.552;9.908;2023-06-22T08:06:26;4.97;;;4.03;;
13683;SDS011;6914;53.552;9.908;2023-06-22T08:08:53;8.63;;;3.90;;
13683;SDS011;6914;53.552;9.908;2023-06-22T08:11:22;7.63;;;4.73;;
13683;SDS011;6914;53.552;9.908;2023-06-22T08:13:50;4.40;;;4.00;;
13683;SDS011;6914;53.552;9.908;2023-06-22T08:16:17;4.10;;;3.80;;
13683;SDS011;6914;53.552;9.908;2023-06-22T08:18:45;4.30;;;3.90;;
13683;SDS011;6914;53.552;9.908;2023-06-22T08:21:12;6.07;;;3.70;;
13683;SDS011;6914;53.552;9.908;2023-06-22T08:23:40;6.20;;;3.70;;
13683;SDS011;6914;53.552;9.908;2023-06-22T08:26:07;6.50;;;4.73;;
13683;SDS011;6914;53.552;9.908;2023-06-22T08:28:34;4.50;;;4.07;;
13683;SDS011;6914;53.552;9.908;2023-06-22T08:31:01;4.93;;;3.60;;
13683;SDS011;6914;53.552;9.908;2023-06-22T08:33:28;4.63;;;3.40;;
13683;SDS011;6914;53.552;9.908;2023-06-22T08:35:57;7.13;;;3.97;;
13683;SDS011;6914;53.552;9.908;2023-06-22T08:38:25;4.57;;;4.03;;
13683;SDS011;6914;53.552;9.908;2023-06-22T08:40:52;4.07;;;3.43;;
13683;SDS011;6914;53.552;9.908;2023-06-22T08:43:19;6.13;;;3.30;;
13683;SDS011;6914;53.552;9.908;2023-06-22T08:45:46;10.40;;;3.80;;
13683;SDS011;6914;53.552;9.908;2023-06-22T08:48:13;14.23;;;3.50;;
13683;SDS011;6914;53.552;9.908;2023-06-22T08:50:40;7.43;;;3.77;;
13683;SDS011;6914;53.552;9.908;2023-06-22T08:53:09;4.47;;;3.33;;
13683;SDS011;6914;53.552;9.908;2023-06-22T08:55:36;3.97;;;3.43;;
13683;SDS011;6914;53.552;9.908;2023-06-22T08:58:03;7.73;;;3.60;;
13683;SDS011;6914;53.552;9.908;2023-06-22T09:00:31;3.63;;;3.33;;
13683;SDS011;6914;53.552;9.908;2023-06-22T09:02:59;4.53;;;3.27;;
13683;SDS011;6914;53.552;9.908;2023-06-22T09:05:27;7.50;;;3.30;;
13683;SDS011;6914;53.552;9.908;2023-06-22T09:07:55;4.13;;;3.70;;
13683;SDS011;6914;53.552;9.908;2023-06-22T09:10:25;3.37;;;3.10;;
13683;SDS011;6914;53.552;9.908;2023-06-22T09:12:52;2.90;;;2.70;;
13683;SDS011;6914;53.552;9.908;2023-06-22T09:15:19;3.17;;;2.97;;
13683;SDS011;6914;53.552;9.908;2023-06-22T09:17:46;3.33;;;3.17;;
13683;SDS011;6914;53.552;9.908;2023-06-22T09:20:13;4.43;;;3.30;;
13683;SDS011;6914;53.552;9.908;2023-06-22T09:22:40;3.87;;;3.67;;
13683;SDS011;6914;53.552;9.908;2023-06-22T09:25:08;4.93;;;3.10;;
13683;SDS011;6914;53.552;9.908;2023-06-22T09:27:36;13.60;;;4.20;;
13683;SDS011;6914;53.552;9.908;2023-06-22T09:30:04;2.80;;;2.60;;
13683;SDS011;6914;53.552;9.908;2023-06-22T09:32:32;13.60;;;4.13;;
13683;SDS011;6914;53.552;9.908;2023-06-22T09:35:01;10.57;;;4.43;;
13683;SDS011;6914;53.552;9.908;2023-06-22T09:37:30;4.40;;;4.07;;
13683;SDS011;6914;53.552;9.908;2023-06-22T09:39:57;4.00;;;3.23;;
13683;SDS011;6914;53.552;9.908;2023-06-22T09:42:25;4.70;;;4.40;;
13683;SDS011;6914;53.552;9.908;2023-06-22T09:44:53;4.90;;;3.53;;
13683;SDS011;6914;53.552;9.908;2023-06-22T09:47:20;4.10;;;3.80;;
13683;SDS011;6914;53.552;9.908;2023-06-22T09:49:47;4.13;;;3.60;;
13683;SDS011;6914;53.552;9.908;2023-06-22T09:52:15;6.10;;;3.97;;
13683;SDS011;6914;53.552;9.908;2023-06-22T09:54:42;3.93;;;3.60;;
13683;SDS011;6914;53.552;9.908;2023-06-22T09:57:09;3.60;;;3.40;;
13683;SDS011;6914;53.552;9.908;2023-06-22T09:59:36;3.83;;;3.53;;
13683;SDS011;6914;53.552;9.908;2023-06-22T10:02:06;8.40;;;4.67;;
13683;SDS011;6914;53.552;9.908;2023-06-22T10:04:33;3.53;;;3.33;;
13683;SDS011;6914;53.552;9.908;2023-06-22T10:07:01;5.10;;;3.07;;
13683;SDS011;6914;53.552;9.908;2023-06-22T10:09:28;4.30;;;3.70;;
13683;SDS011;6914;53.552;9.908;2023-06-22T10:11:55;6.67;;;3.30;;
13683;SDS011;6914;53.552;9.908;2023-06-22T10:14:22;3.17;;;2.97;;
13683;SDS011;6914;53.552;9.908;2023-06-22T10:16:51;3.50;;;3.20;;
13683;SDS011;6914;53.552;9.908;2023-06-22T10:19:19;2.33;;;2.23;;
13683;SDS011;6914;53.552;9.908;2023-06-22T10:21:46;3.00;;;2.60;;
13683;SDS011;6914;53.552;9.908;2023-06-22T10:24:13;2.70;;;2.50;;
13683;SDS011;6914;53.552;9.908;2023-06-22T10:26:40;2.97;;;2.87;;
13683;SDS011;6914;53.552;9.908;2023-06-22T10:29:07;7.30;;;3.10;;
13683;SDS011;6914;53.552;9.908;2023-06-22T10:31:35;3.57;;;3.03;;
13683;SDS011;6914;53.552;9.908;2023-06-22T10:34:02;3.10;;;3.00;;
13683;SDS011;6914;53.552;9.908;2023-06-22T10:36:30;7.63;;;3.10;;
13683;SDS011;6914;53.552;9.908;2023-06-22T10:38:57;15.23;;;2.90;;
13683;SDS011;6914;53.552;9.908;2023-06-22T10:41:26;4.70;;;3.90;;
13683;SDS011;6914;53.552;9.908;2023-06-22T10:43:55;3.03;;;2.83;;
13683;SDS011;6914;53.552;9.908;2023-06-22T10:46:23;15.33;;;3.27;;
13683;SDS011;6914;53.552;9.908;2023-06-22T10:48:50;3.07;;;2.87;;
13683;SDS011;6914;53.552;9.908;2023-06-22T10:51:19;4.00;;;3.70;;
13683;SDS011;6914;53.552;9.908;2023-06-22T10:53:48;4.87;;;3.50;;
13683;SDS011;6914;53.552;9.908;2023-06-22T10:56:16;4.73;;;4.50;;
13683;SDS011;6914;53.552;9.908;2023-06-22T10:58:44;5.37;;;3.37;;
13683;SDS011;6914;53.552;9.908;2023-06-22T11:01:11;8.17;;;3.77;;
13683;SDS011;6914;53.552;9.908;2023-06-22T11:03:40;4.13;;;3.83;;
13683;SDS011;6914;53.552;9.908;2023-06-22T11:06:08;4.20;;;3.40;;
13683;SDS011;6914;53.552;9.908;2023-06-22T11:08:35;7.67;;;3.33;;
13683;SDS011;6914;53.552;9.908;2023-06-22T11:11:03;3.70;;;3.57;;
13683;SDS011;6914;53.552;9.908;2023-06-22T11:13:32;3.43;;;3.13;;
13683;SDS011;6914;53.552;9.908;2023-06-22T11:15:59;5.53;;;3.40;;
13683;SDS011;6914;53.552;9.908;2023-06-22T11:18:26;3.50;;;3.40;;
13683;SDS011;6914;53.552;9.908;2023-06-22T11:20:54;3.97;;;3.63;;
13683;SDS011;6914;53.552;9.908;2023-06-22T11:23:21;6.07;;;3.80;;
13683;SDS011;6914;53.552;9.908;2023-06-22T11:25:51;4.60;;;3.17;;
13683;SDS011;6914;53.552;9.908;2023-06-22T11:28:19;3.83;;;3.03;;
13683;SDS011;6914;53.552;9.908;2023-06-22T11:30:46;4.53;;;3.37;;
13683;SDS011;6914;53.552;9.908;2023-06-22T11:33:14;8.13;;;3.53;;
13683;SDS011;6914;53.552;9.908;2023-06-22T11:35:41;5.10;;;4.70;;
13683;SDS011;6914;53.552;9.908;2023-06-22T11:38:09;11.70;;;4.50;;
13683;SDS011;6914;53.552;9.908;2023-06-22T11:40:36;4.30;;;3.93;;
13683;SDS011;6914;53.552;9.908;2023-06-22T11:43:06;5.43;;;5.13;;
13683;SDS011;6914;53.552;9.908;2023-06-22T11:45:34;4.30;;;3.30;;
13683;SDS011;6914;53.552;9.908;2023-06-22T11:48:01;5.13;;;4.73;;
13683;SDS011;6914;53.552;9.908;2023-06-22T11:50:28;4.63;;;3.60;;
13683;SDS011;6914;53.552;9.908;2023-06-22T11:53:00;4.83;;;4.63;;
13683;SDS011;6914;53.552;9.908;2023-06-22T11:55:27;7.00;;;6.33;;
13683;SDS011;6914;53.552;9.908;2023-06-22T11:57:55;4.60;;;4.20;;
13683;SDS011;6914;53.552;9.908;2023-06-22T12:00:23;4.00;;;3.90;;
13683;SDS011;6914;53.552;9.908;2023-06-22T12:02:52;3.60;;;3.50;;
13683;SDS011;6914;53.552;9.908;2023-06-22T12:05:19;4.27;;;4.07;;
13683;SDS011;6914;53.552;9.908;2023-06-22T12:07:47;4.30;;;4.00;;
13683;SDS011;6914;53.552;9.908;2023-06-22T12:10:14;9.70;;;4.10;;
13683;SDS011;6914;53.552;9.908;2023-06-22T12:12:42;9.97;;;3.40;;
13683;SDS011;6914;53.552;9.908;2023-06-22T12:15:09;3.50;;;3.20;;
13683;SDS011;6914;53.552;9.908;2023-06-22T12:17:37;5.07;;;4.67;;
13683;SDS011;6914;53.552;9.908;2023-06-22T12:20:06;4.10;;;3.90;;
13683;SDS011;6914;53.552;9.908;2023-06-22T12:22:34;4.47;;;4.17;;
13683;SDS011;6914;53.552;9.908;2023-06-22T12:27:35;4.70;;;4.37;;
13683;SDS011;6914;53.552;9.908;2023-06-22T12:30:02;4.13;;;3.80;;
13683;SDS011;6914;53.552;9.908;2023-06-22T12:32:29;3.77;;;3.67;;
13683;SDS011;6914;53.552;9.908;2023-06-22T12:34:57;4.43;;;4.13;;
13683;SDS011;6914;53.552;9.908;2023-06-22T12:37:26;4.87;;;4.13;;
13683;SDS011;6914;53.552;9.908;2023-06-22T12:39:54;7.63;;;4.70;;
13683;SDS011;6914;53.552;9.908;2023-06-22T12:42:21;7.90;;;4.80;;
13683;SDS011;6914;53.552;9.908;2023-06-22T12:44:48;4.50;;;4.30;;
13683;SDS011;6914;53.552;9.908;2023-06-22T12:47:15;5.20;;;4.90;;
13683;SDS011;6914;53.552;9.908;2023-06-22T12:49:42;4.67;;;4.40;;
13683;SDS011;6914;53.552;9.908;2023-06-22T12:52:09;7.43;;;6.77;;
13683;SDS011;6914;53.552;9.908;2023-06-22T12:54:39;6.70;;;6.40;;
13683;SDS011;6914;53.552;9.908;2023-06-22T12:57:08;6.80;;;6.17;;
13683;SDS011;6914;53.552;9.908;2023-06-22T12:59:35;6.20;;;5.83;;
13683;SDS011;6914;53.552;9.908;2023-06-22T13:02:03;5.30;;;5.10;;
13683;SDS011;6914;53.552;9.908;2023-06-22T13:04:30;5.50;;;5.20;;
13683;SDS011;6914;53.552;9.908;2023-06-22T13:06:57;8.70;;;4.80;;
13683;SDS011;6914;53.552;9.908;2023-06-22T13:09:24;5.40;;;4.50;;
13683;SDS011;6914;53.552;9.908;2023-06-22T13:11:52;4.63;;;4.40;;
13683;SDS011;6914;53.552;9.908;2023-06-22T13:14:20;5.10;;;4.70;;
13683;SDS011;6914;53.552;9.908;2023-06-22T13:16:47;4.93;;;4.70;;
13683;SDS011;6914;53.552;9.908;2023-06-22T13:19:14;5.00;;;4.80;;
13683;SDS011;6914;53.552;9.908;2023-06-22T13:21:41;4.83;;;4.63;;
13683;SDS011;6914;53.552;9.908;2023-06-22T13:24:08;5.40;;;4.90;;
13683;SDS011;6914;53.552;9.908;2023-06-22T13:26:35;5.60;;;5.20;;
13683;SDS011;6914;53.552;9.908;2023-06-22T13:29:04;6.20;;;5.80;;
13683;SDS011;6914;53.552;9.908;2023-06-22T13:31:31;6.20;;;5.80;;
13683;SDS011;6914;53.552;9.908;2023-06-22T13:33:58;5.43;;;5.00;;
13683;SDS011;6914;53.552;9.908;2023-06-22T13:36:25;5.73;;;5.40;;
13683;SDS011;6914;53.552;9.908;2023-06-22T13:38:55;6.03;;;5.63;;
13683;SDS011;6914;53.552;9.908;2023-06-22T13:41:22;5.50;;;5.10;;
13683;SDS011;6914;53.552;9.908;2023-06-22T13:43:49;5.90;;;5.60;;
13683;SDS011;6914;53.552;9.908;2023-06-22T13:46:18;5.90;;;5.67;;
13683;SDS011;6914;53.552;9.908;2023-06-22T13:48:46;7.33;;;5.70;;
13683;SDS011;6914;53.552;9.908;2023-06-22T13:51:13;6.40;;;5.90;;
13683;SDS011;6914;53.552;9.908;2023-06-22T13:53:40;6.90;;;5.73;;
13683;SDS011;6914;53.552;9.908;2023-06-22T13:56:07;7.53;;;5.80;;
13683;SDS011;6914;53.552;9.908;2023-06-22T13:58:35;8.10;;;4.83;;
13683;SDS011;6914;53.552;9.908;2023-06-22T14:01:02;7.17;;;5.30;;
13683;SDS011;6914;53.552;9.908;2023-06-22T14:03:30;7.13;;;5.10;;
13683;SDS011;6914;53.552;9.908;2023-06-22T14:05:57;6.40;;;5.50;;
13683;SDS011;6914;53.552;9.908;2023-06-22T14:08:25;5.33;;;5.13;;
13683;SDS011;6914;53.552;9.908;2023-06-22T14:10:52;7.43;;;4.70;;
13683;SDS011;6914;53.552;9.908;2023-06-22T14:13:19;5.30;;;5.00;;
13683;SDS011;6914;53.552;9.908;2023-06-22T14:15:46;11.93;;;6.00;;
13683;SDS011;6914;53.552;9.908;2023-06-22T14:18:14;6.80;;;5.00;;
13683;SDS011;6914;53.552;9.908;2023-06-22T14:20:43;5.60;;;5.30;;
13683;SDS011;6914;53.552;9.908;2023-06-22T14:23:13;5.13;;;4.93;;
13683;SDS011;6914;53.552;9.908;2023-06-22T14:25:40;5.47;;;5.07;;
13683;SDS011;6914;53.552;9.908;2023-06-22T14:28:07;5.83;;;5.43;;
13683;SDS011;6914;53.552;9.908;2023-06-22T14:30:34;6.00;;;5.37;;
13683;SDS011;6914;53.552;9.908;2023-06-22T14:33:01;12.23;;;5.10;;
13683;SDS011;6914;53.552;9.908;2023-06-22T14:35:28;6.13;;;5.73;;
13683;SDS011;6914;53.552;9.908;2023-06-22T14:37:57;6.20;;;5.70;;
13683;SDS011;6914;53.552;9.908;2023-06-22T14:40:24;6.13;;;5.60;;
13683;SDS011;6914;53.552;9.908;2023-06-22T14:42:51;6.20;;;5.70;;
13683;SDS011;6914;53.552;9.908;2023-06-22T14:45:18;6.03;;;5.53;;
13683;SDS011;6914;53.552;9.908;2023-06-22T14:47:45;6.13;;;5.10;;
13683;SDS011;6914;53.552;9.908;2023-06-22T14:50:12;5.17;;;4.80;;
13683;SDS011;6914;53.552;9.908;2023-06-22T14:52:39;10.23;;;6.00;;
13683;SDS011;6914;53.552;9.908;2023-06-22T14:55:08;6.20;;;5.80;;
13683;SDS011;6914;53.552;9.908;2023-06-22T14:57:35;5.57;;;5.03;;
13683;SDS011;6914;53.552;9.908;2023-06-22T15:00:03;6.00;;;5.40;;
13683;SDS011;6914;53.552;9.908;2023-06-22T15:02:31;5.90;;;5.30;;